Time;durP1;ratioP1;P1;durP2;ratioP2;P2;SDS_P1;SDS_P2;PMS_P1;PMS_P2;Temp;Humidity;BMP_temperature;BMP_pressure;BME280_temperature;BME280_humidity;BME280_pressure;Samples;Min_cycle;Max_cycle;Signal;HPM_P1;HPM_P2
2024/01/24 00:02:00;;;;;;;16.58;8.38;;;;;;;;;;5143142;27;20051;-74
2024/01/24 00:04:26;;;;;;;17.70;8.57;;;;;;;;;;5143046;27;20054;-74
2024/01/24 00:06:53;;;;;;;16.15;8.48;;;;;;;;;;5142764;27;20070;-72
2024/01/24 00:09:20;;;;;;;14.80;7.80;;;;;;;;;;5142771;27;20095;-72
2024/01/24 00:11:47;;;;;;;14.25;7.85;;;;;;;;;;5142702;27;20070;-73
2024/01/24 00:14:13;;;;;;;12.48;7.30;;;;;;;;;;5143213;27;20074;-73
2024/01/24 00:16:40;;;;;;;14.05;7.00;;;;;;;;;;5135647;27;20081;-73
2024/01/24 00:19:07;;;;;;;14.73;6.82;;;;;;;;;;5104241;28;20368;-73
2024/01/24 00:21:37;;;;;;;12.10;6.32;;;;;;;;;;5122488;28;20071;-74
2024/01/24 00:24:04;;;;;;;13.93;6.22;;;;;;;;;;5121881;28;20066;-73
2024/01/24 00:26:30;;;;;;;12.23;6.05;;;;;;;;;;5118799;28;20118;-74
2024/01/24 00:28:57;;;;;;;9.63;5.30;;;;;;;;;;5115413;28;20080;-74
2024/01/24 00:31:24;;;;;;;9.15;5.40;;;;;;;;;;5136584;27;20062;-74
2024/01/24 00:33:52;;;;;;;8.75;5.10;;;;;;;;;;5140416;27;20046;-73
2024/01/24 00:36:19;;;;;;;9.93;5.50;;;;;;;;;;5142290;27;20051;-74
2024/01/24 00:38:46;;;;;;;7.18;4.65;;;;;;;;;;5141960;27;20070;-74
2024/01/24 00:41:13;;;;;;;8.98;4.93;;;;;;;;;;5140764;27;20050;-74
2024/01/24 00:43:41;;;;;;;9.75;5.10;;;;;;;;;;5142432;27;20220;-74
2024/01/24 00:46:08;;;;;;;8.93;5.07;;;;;;;;;;5140339;27;20479;-74
2024/01/24 00:48:34;;;;;;;9.38;5.20;;;;;;;;;;5135570;27;20043;-74
2024/01/24 00:51:01;;;;;;;8.02;4.38;;;;;;;;;;5135825;27;20079;-73
2024/01/24 00:53:29;;;;;;;9.57;4.60;;;;;;;;;;5130807;27;20039;-73
2024/01/24 00:55:56;;;;;;;7.75;4.50;;;;;;;;;;5130128;27;20031;-74
2024/01/24 00:58:23;;;;;;;7.70;4.20;;;;;;;;;;5129974;27;20047;-75
2024/01/24 01:00:50;;;;;;;8.00;4.40;;;;;;;;;;5130532;27;20047;-74
2024/01/24 01:03:17;;;;;;;7.68;4.38;;;;;;;;;;5130289;27;20558;-73
2024/01/24 01:05:44;;;;;;;7.13;4.00;;;;;;;;;;5129178;27;20059;-76
2024/01/24 01:08:11;;;;;;;6.50;3.95;;;;;;;;;;5128654;27;20078;-76
2024/01/24 01:10:38;;;;;;;7.05;4.15;;;;;;;;;;5129967;27;20047;-77
2024/01/24 01:13:04;;;;;;;6.72;3.80;;;;;;;;;;5130103;27;20047;-73
2024/01/24 01:15:31;;;;;;;7.25;4.10;;;;;;;;;;5129320;27;20039;-75
2024/01/24 01:17:58;;;;;;;6.78;3.83;;;;;;;;;;5130307;27;20043;-75
2024/01/24 01:20:25;;;;;;;7.63;4.00;;;;;;;;;;5130128;27;20047;-72
2024/01/24 01:22:51;;;;;;;7.25;3.70;;;;;;;;;;5129774;27;20055;-75
2024/01/24 01:25:18;;;;;;;6.75;3.75;;;;;;;;;;5129834;27;20043;-73
2024/01/24 01:27:45;;;;;;;6.93;3.63;;;;;;;;;;5129872;27;20047;-73
2024/01/24 01:30:12;;;;;;;6.15;3.60;;;;;;;;;;5129999;27;20039;-73
2024/01/24 01:32:39;;;;;;;6.85;3.40;;;;;;;;;;5129860;27;20051;-74
2024/01/24 01:35:07;;;;;;;7.30;3.90;;;;;;;;;;5129883;27;20108;-73
2024/01/24 01:37:34;;;;;;;6.55;3.88;;;;;;;;;;5129693;27;20058;-74
2024/01/24 01:40:00;;;;;;;7.05;3.72;;;;;;;;;;5129220;27;20043;-74
2024/01/24 01:42:27;;;;;;;7.75;3.90;;;;;;;;;;5129520;27;20054;-74
2024/01/24 01:44:54;;;;;;;8.20;3.83;;;;;;;;;;5129544;27;20047;-74
2024/01/24 01:47:21;;;;;;;7.07;4.10;;;;;;;;;;5111161;28;20415;-73
2024/01/24 01:49:48;;;;;;;9.25;4.68;;;;;;;;;;5129415;28;20078;-73
2024/01/24 01:52:16;;;;;;;9.95;5.10;;;;;;;;;;5111618;28;20055;-73
2024/01/24 01:54:44;;;;;;;9.95;5.07;;;;;;;;;;5110985;28;20065;-74
2024/01/24 01:57:11;;;;;;;11.25;5.32;;;;;;;;;;5128961;28;20058;-73
2024/01/24 01:59:40;;;;;;;10.52;4.93;;;;;;;;;;5129800;28;20449;-75
2024/01/24 02:02:07;;;;;;;9.20;5.22;;;;;;;;;;5136648;28;20113;-73
2024/01/24 02:04:34;;;;;;;11.05;5.95;;;;;;;;;;5132555;28;20057;-74
2024/01/24 02:07:01;;;;;;;13.70;6.07;;;;;;;;;;5135440;28;20047;-73
2024/01/24 02:09:28;;;;;;;12.32;6.00;;;;;;;;;;5129815;27;20111;-74
2024/01/24 02:11:55;;;;;;;11.82;6.05;;;;;;;;;;5133870;27;20194;-74
2024/01/24 02:14:22;;;;;;;11.70;6.65;;;;;;;;;;5134808;27;20723;-75
2024/01/24 02:16:49;;;;;;;12.93;6.68;;;;;;;;;;5136134;27;20043;-72
2024/01/24 02:19:16;;;;;;;12.15;6.40;;;;;;;;;;5135857;27;20043;-75
2024/01/24 02:21:43;;;;;;;12.30;7.03;;;;;;;;;;5134944;27;20043;-73
2024/01/24 02:24:10;;;;;;;12.23;6.65;;;;;;;;;;5134593;27;20043;-74
2024/01/24 02:26:38;;;;;;;11.30;6.10;;;;;;;;;;5133220;27;20085;-73
2024/01/24 02:29:06;;;;;;;11.75;6.70;;;;;;;;;;5133283;27;20054;-76
2024/01/24 02:31:32;;;;;;;12.73;6.90;;;;;;;;;;5132925;27;20049;-74
2024/01/24 02:33:59;;;;;;;10.80;6.43;;;;;;;;;;5136254;27;20122;-74
2024/01/24 02:36:26;;;;;;;10.95;6.07;;;;;;;;;;5135569;27;20125;-73
2024/01/24 02:38:53;;;;;;;11.95;6.85;;;;;;;;;;5135342;27;20051;-74
2024/01/24 02:41:24;;;;;;;;;;;;;;;;;;5135811;27;20097;-73
2024/01/24 02:43:50;;;;;;;12.15;6.80;;;;;;;;;;5134850;27;19933;-73
2024/01/24 02:46:17;;;;;;;12.00;7.00;;;;;;;;;;5135367;27;20051;-73
2024/01/24 02:48:44;;;;;;;11.65;6.82;;;;;;;;;;5136095;27;20093;-74
2024/01/24 02:51:11;;;;;;;12.57;6.43;;;;;;;;;;5137836;27;20055;-74
2024/01/24 02:53:38;;;;;;;11.32;6.40;;;;;;;;;;5136070;27;20043;-74
2024/01/24 02:56:05;;;;;;;10.55;6.10;;;;;;;;;;5136595;27;20329;-74
2024/01/24 02:58:32;;;;;;;12.40;7.18;;;;;;;;;;5136834;27;20101;-75
2024/01/24 03:00:59;;;;;;;13.80;7.00;;;;;;;;;;5137454;27;20043;-74
2024/01/24 03:03:26;;;;;;;12.38;6.20;;;;;;;;;;5134340;27;20043;-74
2024/01/24 03:05:53;;;;;;;13.55;7.15;;;;;;;;;;5132562;27;20084;-73
2024/01/24 03:08:20;;;;;;;11.68;6.63;;;;;;;;;;5132451;27;20054;-74
2024/01/24 03:10:47;;;;;;;11.43;6.05;;;;;;;;;;5132019;27;20051;-74
2024/01/24 03:13:13;;;;;;;11.65;6.10;;;;;;;;;;5132674;27;20054;-73
2024/01/24 03:15:40;;;;;;;11.60;6.05;;;;;;;;;;5132453;27;20058;-74
2024/01/24 03:18:07;;;;;;;10.15;5.82;;;;;;;;;;5114113;27;20043;-74
2024/01/24 03:20:37;;;;;;;9.38;5.88;;;;;;;;;;5132301;27;20039;-74
2024/01/24 03:23:04;;;;;;;10.10;5.43;;;;;;;;;;5131887;27;20138;-74
2024/01/24 03:25:31;;;;;;;9.40;5.47;;;;;;;;;;5131614;27;20107;-76
2024/01/24 03:27:58;;;;;;;9.73;4.90;;;;;;;;;;5131930;27;20854;-75
2024/01/24 03:30:24;;;;;;;8.80;5.40;;;;;;;;;;5132143;27;20542;-74
2024/01/24 03:32:51;;;;;;;7.65;4.82;;;;;;;;;;5132220;27;20130;-75
2024/01/24 03:35:19;;;;;;;8.88;5.00;;;;;;;;;;5132010;27;20075;-74
2024/01/24 03:37:45;;;;;;;11.40;5.13;;;;;;;;;;5131892;27;20054;-74
2024/01/24 03:40:12;;;;;;;9.93;5.30;;;;;;;;;;5131192;27;20515;-72
2024/01/24 03:42:40;;;;;;;7.63;4.70;;;;;;;;;;5132248;27;20039;-74
2024/01/24 03:45:07;;;;;;;9.05;4.90;;;;;;;;;;5131947;27;20069;-73
2024/01/24 03:47:34;;;;;;;9.45;4.53;;;;;;;;;;5131387;27;20058;-74
2024/01/24 03:50:00;;;;;;;9.82;5.20;;;;;;;;;;5131731;27;20075;-74
2024/01/24 03:52:27;;;;;;;8.02;4.68;;;;;;;;;;5132395;27;20476;-75
2024/01/24 03:54:54;;;;;;;9.75;4.90;;;;;;;;;;5131269;27;20050;-74
2024/01/24 03:57:21;;;;;;;8.75;5.00;;;;;;;;;;5131580;27;20043;-74
2024/01/24 03:59:47;;;;;;;9.23;4.68;;;;;;;;;;5131474;27;20050;-74
2024/01/24 04:02:15;;;;;;;8.52;4.88;;;;;;;;;;5131673;27;20039;-73
2024/01/24 04:04:41;;;;;;;10.32;5.00;;;;;;;;;;5131777;27;20047;-74
2024/01/24 04:07:08;;;;;;;8.07;4.53;;;;;;;;;;5131577;27;20135;-74
2024/01/24 04:09:35;;;;;;;9.35;4.75;;;;;;;;;;5131679;27;20614;-74
2024/01/24 04:12:02;;;;;;;8.13;4.60;;;;;;;;;;5131649;27;20491;-74
2024/01/24 04:14:28;;;;;;;7.65;4.57;;;;;;;;;;5132786;27;20050;-74
2024/01/24 04:16:56;;;;;;;7.72;4.47;;;;;;;;;;5134475;27;20335;-73
2024/01/24 04:19:23;;;;;;;9.65;5.30;;;;;;;;;;5132708;27;20087;-73
2024/01/24 04:21:50;;;;;;;9.52;4.60;;;;;;;;;;5133470;27;20046;-75
2024/01/24 04:24:17;;;;;;;8.82;5.07;;;;;;;;;;5116944;27;20627;-74
2024/01/24 04:26:44;;;;;;;8.68;5.10;;;;;;;;;;5135961;27;20088;-74
2024/01/24 04:29:10;;;;;;;8.45;5.10;;;;;;;;;;5136180;27;20061;-74
2024/01/24 04:31:40;;;;;;;8.25;5.00;;;;;;;;;;5138892;27;20130;-74
2024/01/24 04:34:07;;;;;;;8.85;4.75;;;;;;;;;;5136898;27;20050;-73
2024/01/24 04:36:35;;;;;;;7.75;4.90;;;;;;;;;;5135519;27;20050;-73
2024/01/24 04:39:02;;;;;;;8.85;5.15;;;;;;;;;;5137187;27;20047;-73
2024/01/24 04:41:28;;;;;;;8.50;5.00;;;;;;;;;;5139473;27;20051;-73
2024/01/24 04:43:56;;;;;;;9.98;5.50;;;;;;;;;;5134355;27;20403;-73
2024/01/24 04:46:22;;;;;;;8.50;4.70;;;;;;;;;;5136288;27;20445;-73
2024/01/24 04:48:49;;;;;;;8.75;4.82;;;;;;;;;;5131530;27;20044;-74
2024/01/24 04:51:16;;;;;;;9.82;4.90;;;;;;;;;;5134494;27;20269;-74
2024/01/24 04:53:43;;;;;;;7.40;4.75;;;;;;;;;;5132807;27;20035;-73
2024/01/24 04:56:09;;;;;;;9.23;5.15;;;;;;;;;;5117184;27;20053;-75
2024/01/24 04:58:36;;;;;;;9.68;5.13;;;;;;;;;;5133687;27;20604;-76
2024/01/24 05:01:03;;;;;;;8.63;5.20;;;;;;;;;;5137710;27;20208;-74
2024/01/24 05:03:30;;;;;;;10.65;5.22;;;;;;;;;;5131899;27;20448;-74
2024/01/24 05:05:57;;;;;;;10.07;5.50;;;;;;;;;;5116905;27;20091;-75
2024/01/24 05:08:35;;;;;;;8.30;4.97;;;;;;;;;;5129946;27;20122;-76
2024/01/24 05:11:02;;;;;;;9.30;5.38;;;;;;;;;;5129642;27;20055;-74
2024/01/24 05:13:30;;;;;;;8.90;5.05;;;;;;;;;;5130102;27;20047;-72
2024/01/24 05:15:58;;;;;;;9.48;4.93;;;;;;;;;;5130274;27;20039;-74
2024/01/24 05:18:25;;;;;;;8.95;5.38;;;;;;;;;;5129892;27;20642;-76
2024/01/24 05:20:51;;;;;;;10.38;5.18;;;;;;;;;;5131321;27;20065;-74
2024/01/24 05:23:18;;;;;;;7.85;5.00;;;;;;;;;;5111863;27;20054;-74
2024/01/24 05:25:45;;;;;;;9.23;5.40;;;;;;;;;;5129490;27;20061;-74
2024/01/24 05:28:12;;;;;;;9.75;5.25;;;;;;;;;;5111539;27;20132;-75
2024/01/24 05:30:38;;;;;;;9.27;4.93;;;;;;;;;;5129876;27;20142;-75
2024/01/24 05:33:05;;;;;;;9.55;5.47;;;;;;;;;;5129993;27;20047;-74
2024/01/24 05:35:32;;;;;;;9.32;5.07;;;;;;;;;;5129899;27;20095;-74
2024/01/24 05:38:00;;;;;;;8.05;4.70;;;;;;;;;;5129581;27;20050;-73
2024/01/24 05:40:27;;;;;;;8.05;4.68;;;;;;;;;;5129181;27;20130;-74
2024/01/24 05:42:54;;;;;;;7.72;4.60;;;;;;;;;;5129300;27;20060;-74
2024/01/24 05:45:22;;;;;;;8.68;4.88;;;;;;;;;;5130550;27;20047;-75
2024/01/24 05:47:49;;;;;;;7.82;4.72;;;;;;;;;;5129777;27;20047;-74
2024/01/24 05:50:16;;;;;;;9.82;5.53;;;;;;;;;;5129532;27;20078;-74
2024/01/24 05:52:44;;;;;;;7.88;5.32;;;;;;;;;;5133227;27;20527;-74
2024/01/24 05:55:11;;;;;;;9.52;5.47;;;;;;;;;;5129150;28;20506;-76
2024/01/24 05:57:40;;;;;;;9.45;5.22;;;;;;;;;;5129566;27;20043;-74
2024/01/24 06:00:09;;;;;;;8.73;5.22;;;;;;;;;;5130083;27;20107;-75
2024/01/24 06:02:36;;;;;;;9.32;4.97;;;;;;;;;;5130536;27;20081;-74
2024/01/24 06:05:04;;;;;;;10.27;5.50;;;;;;;;;;5129695;28;20047;-75
2024/01/24 06:07:31;;;;;;;8.60;4.70;;;;;;;;;;5129862;28;20051;-76
2024/01/24 06:09:58;;;;;;;8.98;5.07;;;;;;;;;;5129000;28;20050;-74
2024/01/24 06:12:25;;;;;;;8.68;4.72;;;;;;;;;;5130046;27;20139;-74
2024/01/24 06:14:54;;;;;;;7.45;4.25;;;;;;;;;;5134375;28;20040;-73
2024/01/24 06:17:22;;;;;;;6.22;4.03;;;;;;;;;;5130547;28;20059;-74
2024/01/24 06:19:50;;;;;;;9.45;4.40;;;;;;;;;;5130913;28;20078;-75
2024/01/24 06:22:18;;;;;;;5.38;3.70;;;;;;;;;;5138259;27;20131;-74
2024/01/24 06:24:45;;;;;;;5.65;3.47;;;;;;;;;;5131257;27;20779;-74
2024/01/24 06:27:12;;;;;;;5.95;3.53;;;;;;;;;;5135841;28;20054;-75
2024/01/24 06:29:39;;;;;;;5.32;3.55;;;;;;;;;;5137432;28;20239;-75
2024/01/24 06:32:26;;;;;;;5.75;3.35;;;;;;;;;;5139857;28;20050;-76
2024/01/24 06:34:53;;;;;;;5.22;3.40;;;;;;;;;;5130682;28;20544;-75
2024/01/24 06:37:20;;;;;;;5.57;3.80;;;;;;;;;;5131309;28;20043;-75
2024/01/24 06:39:47;;;;;;;5.60;3.42;;;;;;;;;;5129319;28;20063;-74
2024/01/24 06:42:14;;;;;;;5.60;3.40;;;;;;;;;;5129908;28;20403;-74
2024/01/24 06:44:41;;;;;;;6.28;3.40;;;;;;;;;;5129460;28;20051;-75
2024/01/24 06:47:08;;;;;;;7.13;4.07;;;;;;;;;;5129303;28;20051;-76
2024/01/24 06:49:35;;;;;;;6.65;3.80;;;;;;;;;;5132178;28;20039;-76
2024/01/24 06:52:02;;;;;;;4.63;3.17;;;;;;;;;;5129224;28;20092;-75
2024/01/24 06:54:29;;;;;;;6.82;3.63;;;;;;;;;;5128415;28;20142;-75
2024/01/24 06:56:57;;;;;;;5.97;3.47;;;;;;;;;;5130236;27;20660;-74
2024/01/24 06:59:23;;;;;;;5.78;3.92;;;;;;;;;;5132677;27;20065;-74
2024/01/24 07:01:50;;;;;;;5.22;3.33;;;;;;;;;;5136787;27;20100;-73
2024/01/24 07:04:17;;;;;;;6.30;3.53;;;;;;;;;;5141478;27;20114;-74
2024/01/24 07:06:44;;;;;;;5.50;3.50;;;;;;;;;;5144027;27;20375;-73
2024/01/24 07:09:11;;;;;;;5.68;3.65;;;;;;;;;;5138895;27;20054;-73
2024/01/24 07:11:39;;;;;;;6.15;3.20;;;;;;;;;;5138142;27;20054;-74
2024/01/24 07:14:06;;;;;;;5.93;3.90;;;;;;;;;;5136798;27;20493;-75
2024/01/24 07:16:33;;;;;;;5.80;3.40;;;;;;;;;;5138071;27;20054;-75
2024/01/24 07:19:00;;;;;;;6.13;3.55;;;;;;;;;;5133174;27;20065;-75
2024/01/24 07:21:27;;;;;;;6.05;3.58;;;;;;;;;;5132268;27;20536;-76
2024/01/24 07:23:54;;;;;;;5.47;3.60;;;;;;;;;;5134111;27;20043;-75
2024/01/24 07:26:20;;;;;;;8.80;4.22;;;;;;;;;;5136852;27;20125;-73
2024/01/24 07:28:48;;;;;;;7.38;4.10;;;;;;;;;;5135293;27;20077;-73
2024/01/24 07:31:14;;;;;;;6.95;3.78;;;;;;;;;;5131769;27;20047;-73
2024/01/24 07:33:41;;;;;;;6.57;3.60;;;;;;;;;;5132278;27;20050;-76
2024/01/24 07:36:08;;;;;;;6.00;3.42;;;;;;;;;;5116648;27;20254;-74
2024/01/24 07:38:35;;;;;;;5.40;3.28;;;;;;;;;;5131938;27;20593;-74
2024/01/24 07:41:01;;;;;;;6.78;3.60;;;;;;;;;;5133582;27;20050;-73
2024/01/24 07:43:29;;;;;;;5.85;3.47;;;;;;;;;;5131709;27;20062;-74
2024/01/24 07:46:03;;;;;;;5.57;3.05;;;;;;;;;;5114327;27;20047;-74
2024/01/24 07:48:34;;;;;;;4.95;3.25;;;;;;;;;;5113629;27;20502;-77
2024/01/24 07:51:01;;;;;;;5.55;3.58;;;;;;;;;;5115408;27;20322;-76
2024/01/24 07:53:28;;;;;;;5.47;3.28;;;;;;;;;;5132991;27;20047;-79
2024/01/24 07:55:56;;;;;;;4.93;2.88;;;;;;;;;;5131164;27;20100;-75
2024/01/24 07:58:39;;;;;;;4.68;3.05;;;;;;;;;;5131410;27;20050;-74
2024/01/24 08:01:09;;;;;;;4.55;3.00;;;;;;;;;;5133638;27;20375;-74
2024/01/24 08:03:37;;;;;;;4.63;2.90;;;;;;;;;;5133045;27;20062;-76
2024/01/24 08:06:05;;;;;;;5.47;3.00;;;;;;;;;;5124772;27;20122;-74
2024/01/24 08:08:32;;;;;;;5.38;3.13;;;;;;;;;;5104198;28;20232;-76
2024/01/24 08:10:59;;;;;;;5.75;3.22;;;;;;;;;;5135005;27;20047;-75
2024/01/24 08:13:26;;;;;;;4.97;2.92;;;;;;;;;;5141728;27;20042;-76
2024/01/24 08:15:54;;;;;;;5.57;3.08;;;;;;;;;;5141392;27;20076;-77
2024/01/24 08:18:21;;;;;;;4.82;3.10;;;;;;;;;;5142209;27;20144;-78
2024/01/24 08:20:50;;;;;;;5.70;3.30;;;;;;;;;;5141901;27;20051;-80
2024/01/24 08:23:16;;;;;;;5.57;3.05;;;;;;;;;;5142645;27;20212;-77
2024/01/24 08:25:43;;;;;;;6.32;3.42;;;;;;;;;;5142443;27;20059;-75
2024/01/24 08:28:10;;;;;;;6.22;3.55;;;;;;;;;;5142486;27;20047;-75
2024/01/24 08:30:36;;;;;;;5.03;3.25;;;;;;;;;;5124280;27;20049;-74
2024/01/24 08:33:04;;;;;;;6.78;3.50;;;;;;;;;;5142738;27;20331;-80
2024/01/24 08:35:33;;;;;;;4.85;3.22;;;;;;;;;;5113660;28;20251;-78
2024/01/24 08:38:00;;;;;;;6.63;3.60;;;;;;;;;;5122524;27;20062;-75
2024/01/24 08:40:26;;;;;;;5.80;3.20;;;;;;;;;;5115008;27;20167;-77
2024/01/24 08:42:54;;;;;;;5.38;3.40;;;;;;;;;;5132831;27;20104;-75
2024/01/24 08:45:21;;;;;;;4.82;3.13;;;;;;;;;;5139096;27;20106;-72
2024/01/24 08:47:47;;;;;;;5.38;3.67;;;;;;;;;;5132446;27;20048;-73
2024/01/24 08:50:14;;;;;;;5.40;3.30;;;;;;;;;;5113453;28;20441;-74
2024/01/24 08:52:41;;;;;;;5.47;3.45;;;;;;;;;;5124178;27;20075;-74
2024/01/24 08:55:11;;;;;;;5.95;3.63;;;;;;;;;;5116575;27;20288;-75
2024/01/24 08:57:39;;;;;;;4.70;3.00;;;;;;;;;;5118567;27;20511;-73
2024/01/24 09:00:07;;;;;;;3.75;2.72;;;;;;;;;;5135949;27;20239;-74
2024/01/24 09:02:35;;;;;;;5.57;3.05;;;;;;;;;;5140239;27;20372;-73
2024/01/24 09:05:01;;;;;;;6.18;3.38;;;;;;;;;;5119803;27;20422;-73
2024/01/24 09:07:28;;;;;;;5.13;2.97;;;;;;;;;;5138051;27;20058;-72
2024/01/24 09:09:55;;;;;;;5.57;3.60;;;;;;;;;;5132328;27;20045;-74
2024/01/24 09:12:22;;;;;;;5.03;3.28;;;;;;;;;;5133550;27;20269;-75
2024/01/24 09:14:48;;;;;;;4.57;2.70;;;;;;;;;;5114828;27;20087;-74
2024/01/24 09:17:17;;;;;;;4.13;2.50;;;;;;;;;;5135420;27;20054;-74
2024/01/24 09:19:45;;;;;;;5.53;3.20;;;;;;;;;;5133965;27;20051;-73
2024/01/24 09:22:11;;;;;;;5.57;3.30;;;;;;;;;;5138469;27;20374;-75
2024/01/24 09:24:38;;;;;;;5.88;3.35;;;;;;;;;;5133341;27;20405;-75
2024/01/24 09:27:05;;;;;;;4.90;3.03;;;;;;;;;;5135534;27;20047;-74
2024/01/24 09:29:32;;;;;;;5.50;3.08;;;;;;;;;;5115128;27;20043;-73
2024/01/24 09:31:59;;;;;;;5.78;3.28;;;;;;;;;;5130510;27;20043;-74
2024/01/24 09:34:26;;;;;;;4.45;2.90;;;;;;;;;;5115995;27;20047;-74
2024/01/24 09:36:54;;;;;;;7.65;3.33;;;;;;;;;;5119321;27;20397;-74
2024/01/24 09:39:25;;;;;;;6.65;3.00;;;;;;;;;;5134891;27;20047;-72
2024/01/24 09:41:52;;;;;;;4.28;2.80;;;;;;;;;;5115511;28;20047;-75
2024/01/24 09:44:19;;;;;;;8.25;3.38;;;;;;;;;;5110865;28;20056;-74
2024/01/24 09:46:49;;;;;;;5.03;3.00;;;;;;;;;;5108988;28;20040;-71
2024/01/24 09:49:18;;;;;;;4.50;2.87;;;;;;;;;;5109511;28;20048;-72
2024/01/24 09:51:48;;;;;;;5.10;3.20;;;;;;;;;;5106034;28;20061;-73
2024/01/24 09:54:16;;;;;;;4.87;2.70;;;;;;;;;;5135100;27;20040;-74
2024/01/24 09:56:43;;;;;;;6.22;2.78;;;;;;;;;;5119610;28;20321;-74
2024/01/24 09:59:11;;;;;;;4.47;2.70;;;;;;;;;;5102188;28;20050;-73
2024/01/24 10:01:39;;;;;;;4.60;2.95;;;;;;;;;;5111900;28;20036;-73
2024/01/24 10:04:07;;;;;;;3.97;2.65;;;;;;;;;;5116203;28;20043;-75
2024/01/24 10:06:41;;;;;;;3.40;2.50;;;;;;;;;;5125799;28;20483;-77
2024/01/24 10:09:09;;;;;;;6.63;3.22;;;;;;;;;;5133635;28;20130;-74
2024/01/24 10:11:35;;;;;;;5.50;2.70;;;;;;;;;;5132157;28;20070;-77
2024/01/24 10:14:02;;;;;;;5.32;2.88;;;;;;;;;;5131424;27;20574;-77
2024/01/24 10:16:29;;;;;;;4.25;2.70;;;;;;;;;;5113692;28;20324;-76
2024/01/24 10:18:56;;;;;;;5.45;2.85;;;;;;;;;;5113996;28;20051;-77
2024/01/24 10:21:25;;;;;;;5.03;3.05;;;;;;;;;;5113136;28;20133;-77
2024/01/24 10:23:55;;;;;;;3.72;2.28;;;;;;;;;;5110495;28;20043;-78
2024/01/24 10:26:22;;;;;;;3.13;2.05;;;;;;;;;;5108987;28;20051;-78
2024/01/24 10:28:50;;;;;;;4.10;2.40;;;;;;;;;;5108786;28;20048;-77
2024/01/24 10:31:20;;;;;;;;;;;;;;;;;;5111935;27;20412;-77
2024/01/24 10:33:55;;;;;;;3.08;2.15;;;;;;;;;;5133288;27;19924;-79
2024/01/24 10:36:23;;;;;;;3.20;2.30;;;;;;;;;;5133343;27;20065;-79
2024/01/24 10:39:00;;;;;;;3.38;2.28;;;;;;;;;;5132844;27;20051;-78
2024/01/24 10:41:30;;;;;;;3.40;2.30;;;;;;;;;;5133402;27;20419;-78
2024/01/24 10:44:09;;;;;;;5.53;2.65;;;;;;;;;;5130935;27;20130;-78
2024/01/24 10:46:37;;;;;;;4.65;2.60;;;;;;;;;;5131389;27;20051;-76
2024/01/24 10:49:05;;;;;;;3.65;2.35;;;;;;;;;;5131340;27;20518;-78
2024/01/24 10:51:33;;;;;;;3.97;2.65;;;;;;;;;;5130781;27;20042;-76
2024/01/24 10:54:04;;;;;;;4.10;2.80;;;;;;;;;;5130531;27;20127;-77
2024/01/24 10:56:32;;;;;;;4.72;2.47;;;;;;;;;;5131324;27;20077;-78
2024/01/24 10:59:03;;;;;;;4.85;2.80;;;;;;;;;;5130596;27;20514;-77
2024/01/24 11:01:30;;;;;;;6.43;2.78;;;;;;;;;;5131080;27;20043;-79
2024/01/24 11:03:58;;;;;;;5.20;3.13;;;;;;;;;;5113894;27;20075;-79
2024/01/24 11:06:29;;;;;;;4.72;2.90;;;;;;;;;;5122744;27;20187;-79
2024/01/24 11:09:03;;;;;;;6.32;2.60;;;;;;;;;;5131771;27;20051;-79
2024/01/24 11:11:33;;;;;;;3.67;2.58;;;;;;;;;;5135732;27;20058;-78
2024/01/24 11:14:02;;;;;;;3.83;2.50;;;;;;;;;;5133225;27;20406;-78
2024/01/24 11:16:36;;;;;;;4.78;2.72;;;;;;;;;;5132308;27;20047;-79
2024/01/24 11:19:22;;;;;;;5.40;2.83;;;;;;;;;;5131978;27;20064;-78
2024/01/24 11:21:52;;;;;;;3.50;2.40;;;;;;;;;;5138425;27;20071;-79
2024/01/24 11:24:42;;;;;;;4.03;2.45;;;;;;;;;;5132272;27;20043;-79
2024/01/24 11:27:34;;;;;;;3.40;2.38;;;;;;;;;;5132686;27;20398;-78
2024/01/24 11:30:06;;;;;;;3.13;2.20;;;;;;;;;;5133231;27;20092;-78
2024/01/24 11:32:57;;;;;;;4.60;2.55;;;;;;;;;;5134965;27;20053;-78
2024/01/24 11:35:30;;;;;;;3.85;2.50;;;;;;;;;;5118253;27;20403;-79
2024/01/24 11:38:27;;;;;;;3.25;2.30;;;;;;;;;;5133561;27;20047;-78
2024/01/24 11:41:23;;;;;;;3.85;2.40;;;;;;;;;;5133433;27;20422;-78
2024/01/24 11:43:49;;;;;;;3.85;2.17;;;;;;;;;;5112422;27;20047;-78
2024/01/24 11:46:18;;;;;;;4.75;2.40;;;;;;;;;;5111965;28;20082;-78
2024/01/24 11:48:45;;;;;;;2.97;1.90;;;;;;;;;;5111846;28;20052;-78
2024/01/24 11:51:14;;;;;;;4.03;1.98;;;;;;;;;;5111116;28;20075;-80
2024/01/24 11:53:40;;;;;;;5.93;2.13;;;;;;;;;;5111324;28;20047;-79
2024/01/24 11:56:14;;;;;;;3.67;1.98;;;;;;;;;;5113720;28;20084;-79
2024/01/24 11:58:41;;;;;;;4.85;2.10;;;;;;;;;;5098306;27;20410;-79
2024/01/24 12:01:10;;;;;;;3.25;1.63;;;;;;;;;;5131394;27;20150;-80
2024/01/24 12:03:45;;;;;;;2.78;1.50;;;;;;;;;;5132506;27;20039;-79
2024/01/24 12:06:12;;;;;;;3.30;1.67;;;;;;;;;;5132221;27;20095;-79
2024/01/24 12:08:39;;;;;;;3.65;1.70;;;;;;;;;;5133686;27;20134;-80
2024/01/24 12:11:09;;;;;;;3.75;2.15;;;;;;;;;;5130274;27;20076;-80
2024/01/24 12:13:37;;;;;;;3.00;1.77;;;;;;;;;;5131226;27;20044;-79
2024/01/24 12:16:04;;;;;;;3.25;1.65;;;;;;;;;;5131790;27;20074;-80
2024/01/24 12:18:31;;;;;;;4.05;1.60;;;;;;;;;;5131127;27;20051;-79
2024/01/24 12:20:59;;;;;;;3.00;1.70;;;;;;;;;;5131178;27;20047;-78
2024/01/24 12:23:29;;;;;;;2.78;1.60;;;;;;;;;;5130990;27;20585;-79
2024/01/24 12:25:56;;;;;;;3.33;1.60;;;;;;;;;;5130872;27;20596;-79
2024/01/24 12:28:23;;;;;;;2.92;1.50;;;;;;;;;;5130842;27;20074;-78
2024/01/24 12:30:53;;;;;;;3.13;1.45;;;;;;;;;;5130807;27;20046;-79
2024/01/24 12:33:20;;;;;;;3.72;1.40;;;;;;;;;;5130369;27;20082;-78
2024/01/24 12:35:47;;;;;;;2.97;1.50;;;;;;;;;;5130658;27;20078;-78
2024/01/24 12:38:16;;;;;;;4.97;1.60;;;;;;;;;;5131130;27;20054;-79
2024/01/24 12:40:53;;;;;;;2.85;1.80;;;;;;;;;;5130743;27;20051;-80
2024/01/24 12:43:22;;;;;;;3.20;1.50;;;;;;;;;;5130419;27;20050;-79
2024/01/24 12:45:51;;;;;;;3.13;1.45;;;;;;;;;;5130502;27;20483;-79
2024/01/24 12:48:19;;;;;;;2.70;1.70;;;;;;;;;;5130188;27;20555;-78
2024/01/24 12:50:50;;;;;;;4.35;1.58;;;;;;;;;;5113213;27;20053;-79
2024/01/24 12:53:17;;;;;;;3.85;1.90;;;;;;;;;;5130551;27;20126;-79
2024/01/24 12:55:44;;;;;;;3.10;1.73;;;;;;;;;;5129400;27;20043;-79
2024/01/24 12:58:11;;;;;;;2.38;1.58;;;;;;;;;;5130792;27;20046;-79
2024/01/24 13:00:38;;;;;;;3.05;1.70;;;;;;;;;;5130196;27;20138;-79
2024/01/24 13:03:05;;;;;;;2.80;1.55;;;;;;;;;;5111974;27;20174;-80
2024/01/24 13:05:32;;;;;;;2.67;1.67;;;;;;;;;;5130202;27;20067;-80
2024/01/24 13:08:12;;;;;;;3.67;1.50;;;;;;;;;;5129943;27;20043;-80
2024/01/24 13:10:44;;;;;;;3.22;1.60;;;;;;;;;;5103027;28;20048;-81
2024/01/24 13:13:13;;;;;;;2.38;1.50;;;;;;;;;;5089202;28;20135;-80
2024/01/24 13:15:40;;;;;;;2.72;1.63;;;;;;;;;;5089132;28;20044;-79
2024/01/24 13:18:08;;;;;;;3.28;1.42;;;;;;;;;;5087776;28;20044;-78
2024/01/24 13:20:36;;;;;;;2.92;1.15;;;;;;;;;;5089348;28;20062;-80
2024/01/24 13:23:03;;;;;;;1.77;0.90;;;;;;;;;;5088793;28;20519;-80
2024/01/24 13:25:29;;;;;;;1.50;1.10;;;;;;;;;;5088520;28;20048;-81
2024/01/24 13:27:57;;;;;;;4.72;1.30;;;;;;;;;;5088844;28;20048;-79
2024/01/24 13:30:24;;;;;;;2.38;1.10;;;;;;;;;;5089237;28;20059;-80
2024/01/24 13:32:51;;;;;;;1.67;1.10;;;;;;;;;;5088661;28;20650;-80
2024/01/24 13:35:18;;;;;;;2.03;1.00;;;;;;;;;;5089420;28;20051;-80
2024/01/24 13:37:46;;;;;;;1.85;1.00;;;;;;;;;;5089024;28;20044;-80
2024/01/24 13:40:14;;;;;;;2.92;0.90;;;;;;;;;;5088424;28;20420;-80
2024/01/24 13:42:42;;;;;;;2.05;1.10;;;;;;;;;;5088802;28;20134;-81
2024/01/24 13:45:09;;;;;;;2.05;1.05;;;;;;;;;;5088862;28;20098;-81
2024/01/24 13:47:39;;;;;;;1.63;0.82;;;;;;;;;;5088671;28;20557;-81
2024/01/24 13:50:06;;;;;;;2.20;0.95;;;;;;;;;;5087859;28;20102;-80
2024/01/24 13:52:33;;;;;;;2.20;1.15;;;;;;;;;;5088440;28;20043;-80
2024/01/24 13:55:01;;;;;;;2.47;1.00;;;;;;;;;;5088051;28;20093;-79
2024/01/24 13:57:27;;;;;;;2.40;1.02;;;;;;;;;;5088692;28;20067;-80
2024/01/24 13:59:55;;;;;;;2.13;1.10;;;;;;;;;;5088477;28;20050;-79
2024/01/24 14:02:22;;;;;;;1.40;0.90;;;;;;;;;;5087505;28;20059;-80
2024/01/24 14:04:49;;;;;;;1.60;0.90;;;;;;;;;;5088593;28;20044;-80
2024/01/24 14:07:17;;;;;;;1.33;0.90;;;;;;;;;;5090738;28;20044;-81
2024/01/24 14:09:44;;;;;;;2.53;1.08;;;;;;;;;;5092464;28;20131;-79
2024/01/24 14:12:11;;;;;;;2.05;1.08;;;;;;;;;;5128084;27;20055;-78
2024/01/24 14:14:38;;;;;;;1.40;1.02;;;;;;;;;;5133832;27;20039;-78
2024/01/24 14:17:05;;;;;;;1.70;1.10;;;;;;;;;;5132926;27;20042;-79
2024/01/24 14:19:31;;;;;;;2.88;1.02;;;;;;;;;;5133343;27;20131;-79
2024/01/24 14:21:58;;;;;;;1.20;0.80;;;;;;;;;;5133694;27;20070;-79
2024/01/24 14:24:25;;;;;;;1.33;0.90;;;;;;;;;;5133043;27;20104;-80
2024/01/24 14:26:53;;;;;;;1.77;1.00;;;;;;;;;;5115101;27;20510;-78
2024/01/24 14:29:19;;;;;;;1.20;0.90;;;;;;;;;;5133211;27;20453;-79
2024/01/24 14:31:47;;;;;;;1.40;0.90;;;;;;;;;;5133394;27;20070;-79
2024/01/24 14:34:14;;;;;;;2.50;0.85;;;;;;;;;;5132635;27;20061;-79
2024/01/24 14:36:41;;;;;;;2.15;0.95;;;;;;;;;;5133337;27;20096;-78
2024/01/24 14:39:18;;;;;;;1.75;0.82;;;;;;;;;;5115751;27;20043;-79
2024/01/24 14:41:44;;;;;;;1.60;0.82;;;;;;;;;;5132942;27;20043;-78
2024/01/24 14:44:11;;;;;;;3.60;0.88;;;;;;;;;;5128186;27;20048;-78
2024/01/24 14:46:38;;;;;;;1.55;0.93;;;;;;;;;;5112675;28;20054;-78